首页
METAR-TAF:

METAR-TAF

机场 :

布利斯堡, 得克萨斯州, 美国

纬度: 31-50-58N, 经度: 106-22-48W, 海拔: 1203米

当前天气观测

该预报发布于25分钟前的16:55 UTC
风速6节,风向多变
温度 33°C
湿度 28%
气压 1017 hPa
能見度: 11.3公里
天空无云

METAR: KBIF 241655Z VRB06KT 7SM CLR 33/12 A3003 RMK AO2A SLPNO ALSTG/SLP ESTMD WND DATA ESTMD T03360119 $

时间: 11:20 (17:20 UTC)

预报

该预报发布于6小时和20分钟前的11:00 UTC
预报有效从24日的 11点(UTC)到 25日的 17点(UTC)
风速6节,风向多变
能见度10公里或以上
少量云层高于11000英尺

TAF: KBIF 241100Z 2411/2517 VRB06KT 9999 FEW110 QNH2989INS TX38/2423Z TN24/2412Z

超过4000个机场的气象观测和天气预报(METAR&TAF报告)。

可查询的气象台以黄色和红色小点在地图上表示。

将鼠标移到小点上方,可查看气象台名称。

然后点击查看天气观测和预报。

如需切换地图:点击带黑十字的绿色按钮放大地图;点击带横线的绿色按钮缩小地图;或者点击绿色箭头查看邻近地区的地图。


METAR-TAF: